Time;durP1;ratioP1;P1;durP2;ratioP2;P2;SDS_P1;SDS_P2;PMS_P1;PMS_P2;Temp;Humidity;BMP_temperature;BMP_pressure;BME280_temperature;BME280_humidity;BME280_pressure;Samples;Min_cycle;Max_cycle;Signal;HPM_P1;HPM_P2
2022/03/14 00:02:01;;;;;;;1.80;1.70;;;11.10;99.80;;;;;;4936449;29;20198;-79
2022/03/14 00:04:28;;;;;;;1.90;1.83;;;11.10;99.90;;;;;;4937317;29;20939;-78
2022/03/14 00:06:53;;;;;;;1.90;1.90;;;11.00;99.90;;;;;;4931423;29;20443;-79
2022/03/14 00:09:19;;;;;;;2.70;2.47;;;10.90;99.90;;;;;;4919557;29;21018;-79
2022/03/14 00:11:45;;;;;;;2.37;2.37;;;10.80;99.90;;;;;;4934299;29;20199;-79
2022/03/14 00:14:11;;;;;;;2.13;2.07;;;10.80;99.90;;;;;;4925212;29;20237;-79
2022/03/14 00:16:41;;;;;;;1.97;1.97;;;10.70;99.90;;;;;;4932139;29;20790;-78
2022/03/14 00:19:07;;;;;;;2.70;2.50;;;10.70;99.90;;;;;;4936892;29;20442;-79
2022/03/14 00:21:59;;;;;;;4.00;3.67;;;10.60;99.90;;;;;;4930620;29;20489;-79
2022/03/14 00:24:25;;;;;;;4.20;3.90;;;10.60;99.90;;;;;;4928148;29;20436;-79
2022/03/14 00:26:51;;;;;;;4.50;4.10;;;10.50;99.90;;;;;;4930357;29;20427;-78
2022/03/14 00:29:18;;;;;;;4.20;3.93;;;10.70;99.90;;;;;;4927914;29;20483;-78
2022/03/14 00:31:44;;;;;;;3.23;3.13;;;10.30;99.90;;;;;;4930231;29;20408;-77
2022/03/14 00:34:10;;;;;;;3.47;3.30;;;11.60;99.90;;;;;;4928047;29;20485;-78
2022/03/14 00:36:35;;;;;;;3.93;3.80;;;10.20;99.90;;;;;;4931766;29;20562;-78
2022/03/14 00:39:01;;;;;;;5.20;4.70;;;10.20;99.90;;;;;;4938485;29;20203;-78
2022/03/14 00:41:27;;;;;;;3.17;3.00;;;10.20;99.90;;;;;;4936511;29;20637;-78
2022/03/14 00:43:52;;;;;;;3.57;3.30;;;9.80;99.90;;;;;;4940289;29;20201;-79
2022/03/14 00:46:18;;;;;;;4.77;3.70;;;10.30;99.90;;;;;;4934890;29;20235;-79
2022/03/14 00:48:45;;;;;;;5.90;5.50;;;10.30;99.90;;;;;;4941104;29;20591;-77
2022/03/14 00:51:10;;;;;;;12.80;11.13;;;10.40;99.90;;;;;;4934697;29;20260;-78
2022/03/14 00:53:36;;;;;;;16.17;13.60;;;10.50;99.90;;;;;;4929017;29;20532;-78
2022/03/14 00:56:01;;;;;;;13.23;10.83;;;10.40;99.90;;;;;;4930067;29;20548;-78
2022/03/14 00:58:29;;;;;;;7.90;7.20;;;10.30;99.90;;;;;;4935872;29;20278;-78
2022/03/14 01:00:55;;;;;;;5.80;5.40;;;10.30;99.90;;;;;;4925109;29;20425;-78
2022/03/14 01:03:20;;;;;;;5.20;4.90;;;10.40;99.90;;;;;;4915019;29;20467;-77
2022/03/14 01:05:46;;;;;;;5.50;5.10;;;11.70;99.90;;;;;;4911068;29;20454;-78
2022/03/14 01:08:12;;;;;;;6.50;5.90;;;11.50;99.90;;;;;;4933228;29;20254;-78
2022/03/14 01:10:37;;;;;;;6.00;5.50;;;10.70;99.90;;;;;;4928921;29;20203;-78
2022/03/14 01:13:04;;;;;;;3.23;3.03;;;10.70;99.90;;;;;;4938718;29;20195;-78
2022/03/14 01:15:32;;;;;;;3.60;3.00;;;10.70;99.90;;;;;;4912182;29;20234;-79
2022/03/14 01:17:58;;;;;;;2.27;2.17;;;10.60;99.90;;;;;;4935787;29;20834;-78
2022/03/14 01:20:25;;;;;;;3.03;2.93;;;10.30;99.90;;;;;;4927984;29;21031;-78
2022/03/14 01:22:54;;;;;;;2.47;2.37;;;10.50;99.90;;;;;;4934182;29;20530;-78
2022/03/14 01:25:20;;;;;;;4.67;4.47;;;10.50;99.90;;;;;;4931077;29;20758;-78
2022/03/14 01:27:46;;;;;;;4.47;4.17;;;10.70;99.90;;;;;;4931114;29;20439;-77
2022/03/14 01:30:11;;;;;;;4.00;3.83;;;10.70;99.90;;;;;;4937053;29;20481;-78
2022/03/14 01:32:37;;;;;;;3.47;3.37;;;10.60;99.90;;;;;;4929111;29;20179;-78
2022/03/14 01:35:03;;;;;;;3.83;3.70;;;10.40;99.90;;;;;;4932802;29;20258;-79
2022/03/14 01:37:31;;;;;;;3.00;3.00;;;10.40;99.90;;;;;;4921622;29;20701;-79
2022/03/14 01:39:56;;;;;;;3.87;3.67;;;10.30;99.90;;;;;;4932209;29;20206;-78
2022/03/14 01:42:22;;;;;;;3.70;3.60;;;10.40;99.90;;;;;;4941230;29;20624;-79
2022/03/14 01:44:48;;;;;;;3.30;3.20;;;10.30;99.90;;;;;;4934573;29;20203;-78
2022/03/14 01:47:14;;;;;;;5.20;4.87;;;10.30;99.90;;;;;;4917284;29;20239;-78
2022/03/14 01:49:41;;;;;;;4.33;3.73;;;10.40;99.90;;;;;;4928275;29;20595;-78
2022/03/14 01:52:08;;;;;;;4.43;4.13;;;10.40;99.90;;;;;;4935006;29;20427;-79
2022/03/14 01:54:34;;;;;;;3.83;3.63;;;10.40;99.90;;;;;;4910327;29;20825;-78
2022/03/14 01:57:00;;;;;;;4.03;3.73;;;10.40;99.90;;;;;;4938875;29;20439;-79
2022/03/14 01:59:28;;;;;;;4.00;3.90;;;10.40;99.90;;;;;;4915734;29;20452;-78
2022/03/14 02:01:55;;;;;;;4.30;4.10;;;10.30;99.90;;;;;;4935822;29;20450;-78
2022/03/14 02:04:21;;;;;;;4.33;4.13;;;10.30;99.90;;;;;;4943155;29;20644;-79
2022/03/14 02:06:46;;;;;;;4.47;4.27;;;10.30;99.90;;;;;;4934487;29;20943;-78
2022/03/14 02:09:12;;;;;;;5.23;4.90;;;10.40;99.90;;;;;;4936953;29;20222;-79
2022/03/14 02:11:38;;;;;;;4.77;4.50;;;10.40;99.90;;;;;;4928817;29;20260;-79
2022/03/14 02:14:06;;;;;;;3.97;3.87;;;10.40;99.90;;;;;;4928187;29;20191;-79
2022/03/14 02:16:31;;;;;;;4.70;4.40;;;10.30;99.90;;;;;;4911758;29;20750;-78
2022/03/14 02:18:57;;;;;;;4.50;4.30;;;10.30;99.90;;;;;;4926803;29;20450;-78
2022/03/14 02:21:23;;;;;;;3.93;3.80;;;10.40;99.90;;;;;;4913204;29;20644;-79
2022/03/14 02:23:48;;;;;;;3.77;3.67;;;10.40;99.90;;;;;;4935748;29;20256;-79
2022/03/14 02:26:14;;;;;;;3.20;3.20;;;10.30;99.90;;;;;;4928707;29;20187;-79
2022/03/14 02:28:39;;;;;;;3.90;3.70;;;10.40;99.90;;;;;;4933080;29;20218;-78
2022/03/14 02:31:05;;;;;;;4.97;3.70;;;10.50;99.90;;;;;;4930391;29;20665;-79
2022/03/14 02:33:32;;;;;;;4.33;4.03;;;10.40;99.90;;;;;;4939127;29;20666;-78
2022/03/14 02:35:58;;;;;;;4.93;3.20;;;10.50;99.90;;;;;;4935329;28;20325;-77
2022/03/14 02:38:26;;;;;;;3.97;3.87;;;10.40;99.90;;;;;;4940389;29;20514;-79
2022/03/14 02:40:52;;;;;;;5.60;5.23;;;10.30;99.90;;;;;;4938001;29;20549;-78
2022/03/14 02:43:22;;;;;;;5.20;4.80;;;10.20;99.90;;;;;;4944693;29;20430;-78
2022/03/14 02:45:48;;;;;;;5.97;5.40;;;10.20;99.90;;;;;;4925607;23;20234;-89
2022/03/14 02:48:14;;;;;;;5.70;5.30;;;10.20;99.90;;;;;;4911474;29;20437;-87
2022/03/14 02:50:42;;;;;;;6.37;5.80;;;11.70;99.90;;;;;;4918293;29;21082;-87
2022/03/14 02:53:11;;;;;;;6.73;6.23;;;10.20;99.90;;;;;;4905287;29;20186;-87
2022/03/14 02:55:37;;;;;;;6.13;5.63;;;10.20;99.90;;;;;;4887636;29;20441;-87
2022/03/14 02:58:03;;;;;;;6.20;5.90;;;10.20;99.90;;;;;;4912268;29;20439;-87
2022/03/14 03:00:29;;;;;;;7.07;6.47;;;10.10;99.90;;;;;;4905075;29;20219;-87
2022/03/14 03:02:56;;;;;;;6.20;5.70;;;10.10;99.90;;;;;;4907433;29;20484;-91
2022/03/14 03:05:22;;;;;;;6.13;5.73;;;10.80;99.90;;;;;;4890611;29;20216;-90
2022/03/14 03:07:48;;;;;;;7.50;7.00;;;10.20;99.90;;;;;;4903202;29;20503;-90
2022/03/14 03:10:23;;;;;;;7.23;6.87;;;11.00;99.90;;;;;;4901401;29;20480;-91
2022/03/14 03:12:49;;;;;;;6.63;6.10;;;10.10;99.90;;;;;;4895928;29;20448;-90
2022/03/14 03:15:17;;;;;;;7.03;6.53;;;11.30;99.90;;;;;;4902611;29;20475;-91
2022/03/14 03:17:43;;;;;;;6.37;6.00;;;11.60;99.90;;;;;;4894280;29;20681;-90
2022/03/14 03:20:11;;;;;;;7.30;6.70;;;9.40;99.90;;;;;;4902322;29;20916;-91
2022/03/14 03:22:39;;;;;;;7.73;7.20;;;10.00;99.90;;;;;;4878810;29;20197;-91
2022/03/14 03:25:06;;;;;;;7.33;6.90;;;9.80;99.90;;;;;;4913249;29;20800;-90
2022/03/14 03:27:32;;;;;;;8.10;7.57;;;10.00;99.90;;;;;;4880694;29;20830;-90
2022/03/14 03:29:59;;;;;;;7.77;7.20;;;11.60;99.90;;;;;;4914334;29;20467;-91
2022/03/14 03:32:25;;;;;;;6.87;6.27;;;9.70;99.90;;;;;;4876068;29;20438;-90
2022/03/14 03:34:51;;;;;;;7.07;6.50;;;10.50;99.90;;;;;;4908197;29;20444;-90
2022/03/14 03:37:17;;;;;;;7.77;7.23;;;9.60;99.90;;;;;;4895645;29;20280;-88
2022/03/14 03:39:45;;;;;;;7.57;7.07;;;11.30;99.90;;;;;;4896516;29;20535;-90
2022/03/14 03:42:13;;;;;;;6.73;6.33;;;10.80;99.90;;;;;;4899104;29;20994;-91
2022/03/14 03:44:39;;;;;;;7.33;6.83;;;10.60;99.90;;;;;;4905148;29;20437;-90
2022/03/14 03:47:06;;;;;;;7.47;6.97;;;11.40;99.90;;;;;;4910801;29;20472;-91
2022/03/14 03:49:33;;;;;;;8.03;7.43;;;10.10;99.90;;;;;;4899588;29;20504;-90
2022/03/14 03:51:59;;;;;;;8.70;7.90;;;10.10;99.90;;;;;;4874644;29;20513;-89
2022/03/14 03:54:27;;;;;;;9.17;8.37;;;10.10;99.90;;;;;;4902258;29;20441;-91
2022/03/14 03:56:58;;;;;;;7.90;7.30;;;9.90;99.90;;;;;;4908689;29;20807;-91
2022/03/14 03:59:24;;;;;;;8.97;8.10;;;10.60;99.90;;;;;;4889511;29;20449;-90
2022/03/14 04:02:04;;;;;;;8.50;7.73;;;9.60;99.90;;;;;;4908858;29;20441;-90
2022/03/14 04:04:43;;;;;;;8.57;7.97;;;11.50;99.90;;;;;;4909101;29;20203;-90
2022/03/14 04:07:08;;;;;;;8.50;7.90;;;9.80;99.90;;;;;;4873385;29;20512;-90
2022/03/14 04:09:35;;;;;;;8.33;7.50;;;10.30;99.90;;;;;;4905856;29;20485;-90
2022/03/14 04:12:04;;;;;;;9.00;8.20;;;10.80;99.90;;;;;;4877123;29;20177;-90
2022/03/14 04:14:43;;;;;;;7.97;7.27;;;9.80;99.90;;;;;;4892553;29;20446;-91
2022/03/14 04:17:09;;;;;;;7.00;6.60;;;9.70;99.90;;;;;;4893516;29;20630;-89
2022/03/14 04:20:07;;;;;;;;;;;;;;;;;;;;;
2022/03/14 04:22:42;;;;;;;8.57;7.77;;;9.80;99.90;;;;;;4886330;29;20429;-91
2022/03/14 04:25:11;;;;;;;8.63;7.83;;;8.50;99.90;;;;;;4894122;29;20489;-91
2022/03/14 04:27:40;;;;;;;8.80;8.10;;;11.40;99.90;;;;;;4897386;29;20764;-90
2022/03/14 04:30:08;;;;;;;8.23;7.63;;;9.80;99.90;;;;;;4909830;29;20508;-90
2022/03/14 04:32:39;;;;;;;9.17;8.47;;;9.60;99.90;;;;;;4885843;29;20496;-91
2022/03/14 04:35:33;;;;;;;9.53;8.87;;;9.60;99.90;;;;;;4890208;29;20535;-91
2022/03/14 04:38:04;;;;;;;9.10;8.40;;;9.60;99.90;;;;;;4902688;29;20441;-90
2022/03/14 04:40:35;;;;;;;11.30;7.97;;;9.80;99.90;;;;;;4888339;29;20430;-90
2022/03/14 04:43:15;;;;;;;;;;;;;;;;;;;;;
2022/03/14 04:45:44;;;;;;;10.17;9.27;;;11.70;99.90;;;;;;4890739;29;20531;-91
2022/03/14 04:48:31;;;;;;;10.00;9.17;;;9.80;99.90;;;;;;4904794;29;20717;-91
2022/03/14 04:51:00;;;;;;;11.07;10.10;;;9.80;99.90;;;;;;4884927;29;20539;-90
2022/03/14 04:53:51;;;;;;;9.83;8.93;;;9.70;99.90;;;;;;4885813;29;20958;-90
2022/03/14 04:56:19;;;;;;;12.30;11.07;;;9.80;99.90;;;;;;4885316;29;21007;-91
2022/03/14 04:59:04;;;;;;;11.13;10.03;;;10.00;99.90;;;;;;4895940;29;20543;-91
2022/03/14 05:01:54;;;;;;;10.13;9.40;;;9.70;99.90;;;;;;4876836;29;20425;-91
2022/03/14 05:04:26;;;;;;;9.30;8.50;;;9.80;99.90;;;;;;4883465;29;20429;-90
2022/03/14 05:07:01;;;;;;;13.20;12.10;;;9.50;99.90;;;;;;4899398;29;20447;-90
2022/03/14 05:09:34;;;;;;;13.27;12.10;;;10.10;99.90;;;;;;4892750;29;20479;-92
2022/03/14 05:12:35;;;;;;;13.57;12.33;;;9.50;99.90;;;;;;4876005;29;20506;-91
2022/03/14 05:15:03;;;;;;;13.50;12.30;;;7.90;99.90;;;;;;4885327;29;20539;-90
2022/03/14 05:18:21;;;;;;;;;;;;;;;;;;;;;
2022/03/14 05:24:11;;;;;;;13.93;12.50;;;9.60;99.90;;;;;;4896777;29;20791;-91
2022/03/14 05:26:40;;;;;;;13.83;12.33;;;9.70;99.90;;;;;;4910774;29;20455;-90
2022/03/14 05:29:05;;;;;;;15.57;13.87;;;11.20;99.90;;;;;;4897045;29;20469;-91
2022/03/14 05:31:43;;;;;;;14.87;13.40;;;8.50;99.90;;;;;;4909510;29;20450;-91
2022/03/14 05:34:24;;;;;;;;;;;;;;;;;;;;;
2022/03/14 05:36:58;;;;;;;12.67;11.53;;;11.10;99.90;;;;;;4878658;29;20439;-91
2022/03/14 05:39:32;;;;;;;12.50;11.40;;;8.10;99.90;;;;;;4877211;29;20469;-91
2022/03/14 05:42:01;;;;;;;13.23;12.00;;;9.90;99.90;;;;;;4898574;29;20440;-90
2022/03/14 05:44:26;;;;;;;14.03;12.57;;;9.40;99.90;;;;;;4914461;29;20523;-91
2022/03/14 05:46:57;;;;;;;12.83;11.70;;;9.50;99.90;;;;;;4879227;29;20511;-91
2022/03/14 05:49:35;;;;;;;14.97;13.47;;;9.20;99.90;;;;;;4887594;29;20238;-91
2022/03/14 05:52:05;;;;;;;15.20;13.80;;;9.60;99.90;;;;;;4887117;29;21018;-89
2022/03/14 05:54:34;;;;;;;15.00;13.63;;;9.30;99.90;;;;;;4909341;29;20449;-91
2022/03/14 05:57:24;;;;;;;15.57;12.47;;;11.60;99.90;;;;;;4891736;29;20434;-92
2022/03/14 06:00:01;;;;;;;14.17;12.77;;;9.20;99.90;;;;;;4882663;29;20429;-92
2022/03/14 06:02:34;;;;;;;14.23;12.83;;;8.60;99.90;;;;;;4885647;29;20968;-91
2022/03/14 06:05:03;;;;;;;11.77;10.77;;;9.20;99.90;;;;;;4903561;29;20475;-91
2022/03/14 06:07:32;;;;;;;11.87;10.67;;;9.90;99.90;;;;;;4887367;29;20945;-91
2022/03/14 06:09:57;;;;;;;11.27;10.27;;;9.20;99.90;;;;;;4887776;29;20485;-86
2022/03/14 06:12:31;;;;;;;10.97;9.77;;;10.90;99.90;;;;;;4896763;29;20430;-92
2022/03/14 06:15:13;;;;;;;11.70;10.17;;;9.30;99.90;;;;;;4898952;29;20227;-92
2022/03/14 06:17:43;;;;;;;8.93;7.80;;;9.50;99.90;;;;;;4887099;29;20979;-91
2022/03/14 06:20:13;;;;;;;11.70;10.60;;;9.20;99.90;;;;;;4896910;29;20874;-91
2022/03/14 06:22:40;;;;;;;9.73;9.00;;;9.20;99.90;;;;;;4887390;29;20441;-90
2022/03/14 06:25:07;;;;;;;9.63;8.03;;;9.80;99.90;;;;;;4915726;29;20483;-90
2022/03/14 06:27:35;;;;;;;9.70;9.00;;;9.20;99.90;;;;;;4903682;29;20514;-90
2022/03/14 06:30:15;;;;;;;9.83;9.03;;;11.10;99.90;;;;;;4900648;29;20476;-91
2022/03/14 06:32:47;;;;;;;9.53;8.63;;;9.20;99.90;;;;;;4539794;29;10000130;-89
2022/03/14 06:35:14;;;;;;;8.83;8.13;;;9.60;99.90;;;;;;4892289;29;20982;-91
2022/03/14 06:37:45;;;;;;;8.60;7.80;;;8.80;99.90;;;;;;4892067;29;20545;-89
2022/03/14 06:40:12;;;;;;;9.70;8.73;;;9.20;99.90;;;;;;4887744;29;20597;-87
2022/03/14 06:42:57;;;;;;;9.03;8.30;;;9.30;99.90;;;;;;4892396;29;20655;-91
2022/03/14 06:45:27;;;;;;;7.13;6.53;;;9.30;99.90;;;;;;4892234;29;20574;-90
2022/03/14 06:48:03;;;;;;;7.93;7.20;;;9.30;99.90;;;;;;4881345;29;20560;-92
2022/03/14 06:50:31;;;;;;;6.63;6.03;;;9.80;99.90;;;;;;4887518;29;20526;-89
2022/03/14 06:53:05;;;;;;;7.43;6.90;;;9.10;99.90;;;;;;4872643;29;20467;-91
2022/03/14 06:55:54;;;;;;;8.57;7.87;;;9.60;99.90;;;;;;4888814;29;20443;-90
2022/03/14 06:58:20;;;;;;;7.50;6.90;;;9.30;99.90;;;;;;4889907;29;20457;-91
2022/03/14 07:00:46;;;;;;;7.10;6.70;;;11.00;99.90;;;;;;4905923;29;20457;-90
2022/03/14 07:03:12;;;;;;;6.87;6.37;;;10.50;99.90;;;;;;4890973;29;20446;-91
2022/03/14 07:05:49;;;;;;;8.07;6.20;;;10.30;99.90;;;;;;4909253;29;20591;-92
2022/03/14 07:08:17;;;;;;;6.20;5.80;;;9.40;99.90;;;;;;4881259;29;20291;-88
2022/03/14 07:10:55;;;;;;;6.47;6.07;;;9.30;99.90;;;;;;4907936;29;20451;-92
2022/03/14 07:13:34;;;;;;;6.50;5.90;;;9.20;99.90;;;;;;4883947;29;20432;-92
2022/03/14 07:16:07;;;;;;;6.90;6.50;;;9.80;99.90;;;;;;4892966;29;20443;-89
2022/03/14 07:18:34;;;;;;;5.50;4.90;;;9.40;99.90;;;;;;4880688;29;20478;-92
2022/03/14 07:21:02;;;;;;;9.53;6.77;;;9.00;99.90;;;;;;4908540;29;20436;-92
2022/03/14 07:23:38;;;;;;;6.37;5.77;;;9.40;99.90;;;;;;4892647;29;20476;-91
2022/03/14 07:26:04;;;;;;;7.20;6.50;;;8.30;99.90;;;;;;4886993;29;20437;-90
2022/03/14 07:28:33;;;;;;;7.23;6.27;;;9.40;99.90;;;;;;4894140;29;20452;-90
2022/03/14 07:31:01;;;;;;;6.97;6.43;;;9.50;99.90;;;;;;4891559;29;20287;-88
2022/03/14 07:33:35;;;;;;;5.50;5.07;;;9.20;99.90;;;;;;4885701;29;20790;-89
2022/03/14 07:36:03;;;;;;;8.30;6.13;;;10.30;99.90;;;;;;4883348;29;20441;-94
2022/03/14 07:38:29;;;;;;;6.13;5.63;;;9.60;99.90;;;;;;4893865;29;20448;-89
2022/03/14 07:41:15;;;;;;;5.57;5.23;;;11.10;99.90;;;;;;4909205;29;20454;-90
2022/03/14 07:43:41;;;;;;;6.43;5.83;;;9.50;99.90;;;;;;4884928;29;20193;-91
2022/03/14 07:46:29;;;;;;;6.47;5.97;;;11.70;99.90;;;;;;4896116;29;21018;-92
2022/03/14 07:48:55;;;;;;;6.43;5.93;;;10.60;99.90;;;;;;4885528;29;20638;-91
2022/03/14 07:51:44;;;;;;;7.70;6.80;;;11.30;99.90;;;;;;4885855;29;20765;-92
2022/03/14 07:54:33;;;;;;;6.90;6.30;;;10.90;99.90;;;;;;4905682;29;20445;-92
2022/03/14 07:57:17;;;;;;;7.40;5.90;;;9.80;99.90;;;;;;4896068;29;20461;-91
2022/03/14 08:00:32;;;;;;;9.87;6.60;;;9.80;99.90;;;;;;4892003;29;20431;-91
2022/03/14 08:03:24;;;;;;;6.40;5.90;;;9.70;99.90;;;;;;4865193;29;20804;-92
2022/03/14 08:05:55;;;;;;;7.10;6.50;;;11.50;99.90;;;;;;4893905;29;20440;-92
2022/03/14 08:08:24;;;;;;;6.20;5.90;;;9.90;99.90;;;;;;4893878;29;20429;-90
2022/03/14 08:11:18;;;;;;;6.97;6.33;;;10.10;99.90;;;;;;5091989;23;20494;-86
2022/03/14 08:19:38;;;;;;;5.70;5.40;;;12.00;99.90;;;;;;5012218;23;20498;-87
2022/03/14 08:22:04;;;;;;;9.37;6.57;;;10.30;99.90;;;;;;5023752;23;20561;-89
2022/03/14 08:24:46;;;;;;;7.83;5.63;;;10.70;99.90;;;;;;4937710;29;20443;-89
2022/03/14 08:27:14;;;;;;;6.07;5.43;;;10.20;99.90;;;;;;4934731;29;20195;-92
2022/03/14 08:29:59;;;;;;;7.13;6.50;;;10.30;99.90;;;;;;4942477;29;20490;-91
2022/03/14 08:32:30;;;;;;;6.90;6.20;;;12.30;99.90;;;;;;4923799;29;20849;-93
2022/03/14 08:35:20;;;;;;;7.10;6.07;;;11.50;99.90;;;;;;4941362;29;20481;-90
2022/03/14 08:37:53;;;;;;;6.67;6.17;;;10.40;99.90;;;;;;4932081;29;20712;-91
2022/03/14 08:40:45;;;;;;;6.07;5.27;;;10.60;99.90;;;;;;4940553;29;20918;-90
2022/03/14 08:43:11;;;;;;;6.87;6.30;;;12.10;99.90;;;;;;4931009;29;20494;-89
2022/03/14 08:45:43;;;;;;;6.27;5.80;;;10.60;99.90;;;;;;4933793;29;20439;-92
2022/03/14 08:48:33;;;;;;;6.70;6.00;;;10.60;99.90;;;;;;4942209;29;20442;-90
2022/03/14 08:51:34;;;;;;;5.87;4.53;;;12.30;99.90;;;;;;4929271;29;20474;-90
2022/03/14 08:54:34;;;;;;;9.00;6.33;;;12.10;99.90;;;;;;4929156;29;20481;-91
2022/03/14 08:57:20;;;;;;;5.83;5.33;;;10.80;99.90;;;;;;4938401;29;20506;-90
2022/03/14 08:59:49;;;;;;;6.00;5.60;;;11.00;99.90;;;;;;4928775;29;20517;-92
2022/03/14 09:05:12;;;;;;;6.27;5.67;;;10.90;99.90;;;;;;5550318;23;20853;-87
2022/03/14 09:12:56;;;;;;;5.70;5.30;;;10.90;99.90;;;;;;3091117;23;20475;-86
2022/03/14 09:19:05;;;;;;;5.40;5.13;;;10.90;99.90;;;;;;4914398;29;20523;-88
2022/03/14 09:22:48;;;;;;;6.27;5.70;;;12.70;99.90;;;;;;4912955;29;20852;-85
2022/03/14 09:25:36;;;;;;;5.93;4.77;;;11.40;99.90;;;;;;4835321;29;20474;-87
2022/03/14 09:43:30;;;;;;;7.57;6.83;;;10.90;99.90;;;;;;5126398;23;20242;-79
2022/03/14 09:46:22;;;;;;;5.53;5.23;;;10.90;99.90;;;;;;4911060;29;20432;-84
2022/03/14 09:49:02;;;;;;;16.07;6.27;;;11.70;99.90;;;;;;4907960;29;20889;-82
2022/03/14 09:52:04;;;;;;;6.10;5.53;;;11.10;99.90;;;;;;4851331;29;20443;-86
2022/03/14 09:54:30;;;;;;;6.27;5.00;;;11.20;99.90;;;;;;4846941;29;20468;-81
2022/03/14 09:57:10;;;;;;;7.77;7.07;;;11.10;99.90;;;;;;4849457;29;20490;-86
2022/03/14 10:01:01;;;;;;;;;;;;;;;;;;;;;
2022/03/14 10:06:42;;;;;;;6.67;6.37;;;10.90;99.90;;;;;;4722693;30;20444;-86
2022/03/14 10:13:01;;;;;;;6.67;6.03;;;10.40;99.90;;;;;;4724410;30;20494;-83
2022/03/14 10:16:24;;;;;;;;;;;;;;;;;;;;;
2022/03/14 10:19:38;;;;;;;4.63;4.30;;;11.10;99.90;;;;;;4681413;30;20541;-80
2022/03/14 10:28:21;;;;;;;7.00;5.73;;;10.90;99.90;;;;;;5363570;23;20287;-86
2022/03/14 10:33:48;;;;;;;6.90;5.07;;;11.00;99.90;;;;;;4861985;29;20564;-85
2022/03/14 10:36:49;;;;;;;10.47;5.50;;;11.00;99.90;;;;;;4926946;29;20849;-86
2022/03/14 10:40:01;;;;;;;9.90;5.90;;;11.10;99.90;;;;;;4876244;29;20505;-86
2022/03/14 10:43:12;;;;;;;5.73;5.33;;;11.10;99.90;;;;;;4883575;29;20438;-86
2022/03/14 10:45:44;;;;;;;8.10;5.60;;;11.10;99.90;;;;;;4897289;29;20934;-84
2022/03/14 10:48:48;;;;;;;5.17;4.77;;;9.90;99.90;;;;;;4979109;23;20584;-86
2022/03/14 11:18:06;;;;;;;5.87;5.30;;;14.40;99.90;;;;;;5096202;23;20495;-87
2022/03/14 11:20:34;;;;;;;6.40;5.90;;;14.00;99.90;;;;;;4846224;29;20435;-86
2022/03/14 11:56:34;;;;;;;5.10;4.80;;;14.00;98.30;;;;;;5048364;23;20476;-88
2022/03/14 11:59:24;;;;;;;9.63;5.67;;;14.00;99.90;;;;;;4990078;23;20565;-85
2022/03/14 12:02:35;;;;;;;5.77;5.57;;;13.50;99.90;;;;;;4934850;29;20440;-87
2022/03/14 12:05:17;;;;;;;;;;;;;;;;;;;;;
2022/03/14 12:13:01;;;;;;;5.17;4.53;;;16.30;87.80;;;;;;5055881;23;20495;-87
2022/03/14 12:37:35;;;;;;;7.13;3.40;;;14.50;90.80;;;;;;5079140;23;20486;-86
2022/03/14 12:40:12;;;;;;;8.40;5.20;;;15.00;93.00;;;;;;4885547;29;20464;-85
2022/03/14 12:42:42;;;;;;;3.73;3.43;;;15.80;94.40;;;;;;4886963;29;20437;-85
2022/03/14 12:45:19;;;;;;;9.60;5.07;;;14.30;97.40;;;;;;4897105;29;20418;-88
2022/03/14 12:48:05;;;;;;;5.03;4.00;;;13.40;97.20;;;;;;4876279;29;20445;-88
2022/03/14 12:50:43;;;;;;;3.43;3.23;;;13.50;98.00;;;;;;4875940;29;20480;-87
2022/03/14 12:53:13;;;;;;;5.17;4.10;;;14.00;97.90;;;;;;4890526;29;20449;-87
2022/03/14 12:55:57;;;;;;;6.20;4.57;;;15.70;96.50;;;;;;4889314;29;20433;-87
2022/03/14 12:58:33;;;;;;;3.73;3.63;;;14.60;93.90;;;;;;4886808;29;20446;-88
2022/03/14 13:04:17;;;;;;;4.47;4.13;;;13.60;96.10;;;;;;5000951;23;20482;-87
2022/03/14 13:06:59;;;;;;;5.37;5.10;;;14.10;98.90;;;;;;4885023;29;20461;-83
2022/03/14 13:09:56;;;;;;;6.63;5.33;;;13.30;99.70;;;;;;4910449;29;20484;-86
2022/03/14 13:12:54;;;;;;;5.90;5.40;;;13.10;99.90;;;;;;4908423;29;20521;-86
2022/03/14 13:15:20;;;;;;;4.40;4.00;;;12.90;99.90;;;;;;4921812;29;20430;-87
2022/03/14 13:17:49;;;;;;;5.73;5.13;;;14.90;99.90;;;;;;4929189;29;20497;-88
2022/03/14 13:20:43;;;;;;;4.33;4.10;;;12.50;99.90;;;;;;4920472;29;20420;-87
2022/03/14 13:23:36;;;;;;;5.30;4.83;;;13.50;99.90;;;;;;4910015;29;20527;-86
2022/03/14 13:26:03;;;;;;;7.35;4.95;;;13.50;99.90;;;;;;4218695;29;10001167;-88
2022/03/14 13:28:34;;;;;;;6.30;5.70;;;13.50;99.90;;;;;;4906174;29;20371;-88
2022/03/14 13:31:29;;;;;;;;;;;;;;;;;;;;;
2022/03/14 13:34:41;;;;;;;6.00;5.50;;;13.90;99.90;;;;;;4914022;29;20511;-89
2022/03/14 13:37:17;;;;;;;5.90;5.53;;;13.90;99.70;;;;;;4902299;29;20417;-84
2022/03/14 13:42:36;;;;;;;6.13;5.67;;;14.00;99.90;;;;;;4919772;29;20436;-88
2022/03/14 13:45:06;;;;;;;6.60;6.20;;;14.00;99.40;;;;;;4902923;29;20561;-86
2022/03/14 13:47:34;;;;;;;5.50;5.20;;;14.30;98.60;;;;;;4892209;29;20479;-86
2022/03/14 13:50:12;;;;;;;5.30;5.00;;;14.50;98.10;;;;;;4919697;29;20567;-85
2022/03/14 13:52:55;;;;;;;6.47;5.97;;;14.90;97.40;;;;;;4901291;29;20523;-90
2022/03/14 13:55:57;;;;;;;5.63;5.17;;;15.90;97.20;;;;;;4891716;29;20446;-86
2022/03/14 13:58:36;;;;;;;5.47;5.07;;;14.80;96.20;;;;;;4902291;29;20416;-86
2022/03/14 14:02:23;;;;;;;;;;;;;;;;;;;;;
2022/03/14 14:13:55;;;;;;;5.67;5.37;;;14.70;95.00;;;;;;4854308;29;20555;-88
2022/03/14 14:17:52;;;;;;;;;;;;;;;;;;;;;
2022/03/14 14:28:11;;;;;;;5.50;5.00;;;14.80;93.40;;;;;;4930034;23;20561;-87
2022/03/14 14:31:10;;;;;;;4.47;4.17;;;15.20;92.10;;;;;;4901463;29;20999;-85
2022/03/14 14:33:37;;;;;;;5.50;5.20;;;15.40;89.30;;;;;;4915823;29;20431;-86
2022/03/14 14:36:08;;;;;;;6.00;5.50;;;14.40;90.30;;;;;;4931087;29;20447;-88
2022/03/14 14:38:35;;;;;;;4.77;4.53;;;15.70;89.50;;;;;;4932768;29;20443;-83
2022/03/14 14:41:09;;;;;;;5.07;4.67;;;14.80;85.60;;;;;;4913946;29;20648;-87
2022/03/14 14:44:13;;;;;;;6.07;5.20;;;16.10;87.90;;;;;;4891870;29;20425;-88
2022/03/14 14:46:57;;;;;;;6.07;4.90;;;16.50;84.00;;;;;;4831288;29;20432;-87
2022/03/14 14:49:28;;;;;;;5.60;5.20;;;17.10;77.80;;;;;;4887121;29;20780;-83
2022/03/14 14:51:56;;;;;;;5.23;5.00;;;17.40;73.40;;;;;;4910687;29;20450;-85
2022/03/14 14:59:48;;;;;;;4.77;4.57;;;16.40;75.20;;;;;;5235214;23;20478;-84
2022/03/14 15:04:52;;;;;;;5.87;5.40;;;15.60;80.80;;;;;;3115511;27;20479;-85
2022/03/14 15:07:34;;;;;;;;;;;;;;;;;;;;;
2022/03/14 15:10:26;;;;;;;4.60;4.40;;;15.90;87.60;;;;;;4922910;29;20563;-84
2022/03/14 15:12:56;;;;;;;4.80;4.50;;;15.60;84.60;;;;;;4908143;29;20424;-85
2022/03/14 15:15:42;;;;;;;4.30;4.00;;;15.60;85.40;;;;;;4910975;29;20453;-84
2022/03/14 15:18:13;;;;;;;5.07;4.67;;;15.00;84.90;;;;;;4982442;23;21407;-93
2022/03/14 15:20:44;;;;;;;10.93;5.03;;;15.70;84.80;;;;;;4899196;29;20943;-89
2022/03/14 15:23:13;;;;;;;5.50;4.90;;;17.70;83.50;;;;;;4898848;29;20420;-91
2022/03/14 15:25:39;;;;;;;5.50;5.20;;;17.30;85.00;;;;;;4903853;29;20431;-92
2022/03/14 15:28:39;;;;;;;7.70;5.50;;;15.80;83.00;;;;;;4897028;29;20449;-89
2022/03/14 15:31:13;;;;;;;5.10;4.80;;;16.10;80.90;;;;;;4911418;29;20248;-91
2022/03/14 15:33:42;;;;;;;5.20;4.80;;;16.40;78.30;;;;;;4888314;29;20428;-87
2022/03/14 15:36:12;;;;;;;5.70;5.37;;;16.90;80.20;;;;;;4908564;29;20519;-91
2022/03/14 15:38:39;;;;;;;4.60;4.40;;;16.20;75.40;;;;;;4889586;29;20441;-91
2022/03/14 15:41:08;;;;;;;3.50;3.40;;;15.80;77.90;;;;;;4910653;29;20425;-89
2022/03/14 15:43:45;;;;;;;4.00;3.80;;;17.30;80.10;;;;;;4886509;29;20456;-92
2022/03/14 15:46:14;;;;;;;4.80;4.40;;;14.70;81.90;;;;;;4892564;29;20854;-91
2022/03/14 15:48:43;;;;;;;3.23;3.10;;;15.10;77.10;;;;;;4908066;29;20432;-89
2022/03/14 15:51:15;;;;;;;3.20;3.00;;;15.00;77.80;;;;;;4893371;29;20453;-92
2022/03/14 15:53:43;;;;;;;2.93;2.83;;;16.60;78.80;;;;;;4902475;29;20480;-88
2022/03/14 15:56:09;;;;;;;2.57;2.47;;;16.90;79.40;;;;;;4896635;29;20492;-89
2022/03/14 15:58:35;;;;;;;2.67;2.53;;;14.50;74.40;;;;;;4878897;29;20441;-88
2022/03/14 16:01:01;;;;;;;8.77;3.50;;;15.50;80.40;;;;;;4897311;29;20176;-89
2022/03/14 16:03:29;;;;;;;3.57;3.33;;;15.70;84.20;;;;;;4877017;29;20940;-89
2022/03/14 16:05:58;;;;;;;3.03;2.10;;;13.80;80.90;;;;;;4904454;29;20189;-90
2022/03/14 16:08:23;;;;;;;3.47;3.17;;;14.30;80.70;;;;;;4881512;29;20751;-89
2022/03/14 16:10:49;;;;;;;2.70;2.50;;;13.20;83.20;;;;;;4897555;29;20473;-90
2022/03/14 16:13:18;;;;;;;2.73;2.10;;;13.40;82.60;;;;;;4886585;29;20451;-89
2022/03/14 16:15:44;;;;;;;2.20;2.20;;;15.00;86.50;;;;;;4901107;29;20446;-90
2022/03/14 16:18:13;;;;;;;2.83;2.63;;;13.50;85.80;;;;;;4898591;29;20948;-90
2022/03/14 16:20:43;;;;;;;2.30;2.20;;;14.20;90.10;;;;;;4886363;29;20440;-90
2022/03/14 16:23:22;;;;;;;2.33;2.23;;;13.30;90.00;;;;;;4897356;29;20464;-90
2022/03/14 16:25:57;;;;;;;8.50;3.30;;;13.20;92.00;;;;;;4876657;29;20501;-90
2022/03/14 16:28:22;;;;;;;2.63;2.42;;;14.20;93.00;;;;;;4533756;29;10000163;-89
2022/03/14 16:30:48;;;;;;;2.80;2.70;;;13.20;93.40;;;;;;4877528;29;20545;-87